createdAt,value
2018-04-27T00:01:05.604Z,12.93
2018-04-27T00:03:33.191Z,12.33
2018-04-27T00:06:00.802Z,11.80
2018-04-27T00:08:28.428Z,13.17
2018-04-27T00:10:56.047Z,10.70
2018-04-27T00:13:23.634Z,11.67
2018-04-27T00:15:51.368Z,10.27
2018-04-27T00:18:18.964Z,11.67
2018-04-27T00:20:46.568Z,13.30
2018-04-27T00:23:14.244Z,12.20
2018-04-27T00:25:41.912Z,13.77
2018-04-27T00:28:09.582Z,12.70
2018-04-27T00:30:37.233Z,12.67
2018-04-27T00:33:04.904Z,13.10
2018-04-27T00:35:32.544Z,11.70
2018-04-27T00:38:00.221Z,13.47
2018-04-27T00:40:27.882Z,13.27
2018-04-27T00:42:55.548Z,13.23
2018-04-27T00:45:23.158Z,11.70
2018-04-27T00:47:51.001Z,11.90
2018-04-27T00:50:18.745Z,12.27
2018-04-27T00:52:58.084Z,12.23
2018-04-27T00:55:25.666Z,10.77
2018-04-27T00:57:53.252Z,12.40
2018-04-27T01:00:21.069Z,11.60
2018-04-27T01:02:48.651Z,12.70
2018-04-27T01:05:16.233Z,13.60
2018-04-27T01:07:43.856Z,12.63
2018-04-27T01:10:11.441Z,14.07
2018-04-27T01:12:39.033Z,13.27
2018-04-27T01:15:06.651Z,13.67
2018-04-27T01:17:34.239Z,11.97
2018-04-27T01:20:01.856Z,13.30
2018-04-27T01:22:29.480Z,13.00
2018-04-27T01:24:57.054Z,13.30
2018-04-27T01:27:24.631Z,12.63
2018-04-27T01:29:52.389Z,13.77
2018-04-27T01:32:20.050Z,13.33
2018-04-27T01:34:47.635Z,13.43
2018-04-27T01:37:15.258Z,13.40
2018-04-27T01:39:42.851Z,12.40
2018-04-27T01:42:10.434Z,12.87
2018-04-27T01:44:38.051Z,15.10
2018-04-27T01:47:05.819Z,13.57
2018-04-27T01:49:33.677Z,14.87
2018-04-27T01:52:01.305Z,13.97
2018-04-27T01:54:28.911Z,14.47
2018-04-27T01:56:56.486Z,13.03
2018-04-27T01:59:24.148Z,14.40
2018-04-27T02:01:51.723Z,14.90
2018-04-27T02:04:19.309Z,14.13
2018-04-27T02:06:46.940Z,15.93
2018-04-27T02:09:14.522Z,14.40
2018-04-27T02:11:42.109Z,14.20
2018-04-27T02:14:09.737Z,14.60
2018-04-27T02:16:37.321Z,15.10
2018-04-27T02:19:04.898Z,13.90
2018-04-27T02:21:32.508Z,14.30
2018-04-27T02:24:00.092Z,13.40
2018-04-27T02:26:27.675Z,13.83
2018-04-27T02:28:55.296Z,14.63
2018-04-27T02:31:22.889Z,13.87
2018-04-27T02:33:50.463Z,14.07
2018-04-27T02:36:18.092Z,14.50
2018-04-27T02:38:45.671Z,13.90
2018-04-27T02:41:13.262Z,14.10
2018-04-27T02:43:40.879Z,15.30
2018-04-27T02:46:08.456Z,14.20
2018-04-27T02:48:36.042Z,13.53
2018-04-27T02:51:03.658Z,13.83
2018-04-27T02:53:31.288Z,15.20
2018-04-27T02:55:58.934Z,15.10
2018-04-27T02:58:26.574Z,13.97
2018-04-27T03:00:54.253Z,15.67
2018-04-27T03:03:21.830Z,14.23
2018-04-27T03:05:49.448Z,13.77
2018-04-27T03:08:17.050Z,14.73
2018-04-27T03:10:44.635Z,14.53
2018-04-27T03:13:12.265Z,13.60
2018-04-27T03:15:39.852Z,14.50
2018-04-27T03:18:07.446Z,13.80
2018-04-27T03:20:35.059Z,13.83
2018-04-27T03:23:02.653Z,14.30
2018-04-27T03:25:30.285Z,13.10
2018-04-27T03:27:57.912Z,14.60
2018-04-27T03:30:25.509Z,14.67
2018-04-27T03:32:53.094Z,14.37
2018-04-27T03:35:20.725Z,12.23
2018-04-27T03:37:48.305Z,13.80
2018-04-27T03:40:15.889Z,14.17
2018-04-27T03:42:43.521Z,14.50
2018-04-27T03:45:11.113Z,13.40
2018-04-27T03:47:38.704Z,14.77
2018-04-27T03:52:39.347Z,13.37
2018-04-27T03:55:06.935Z,11.77
2018-04-27T03:57:34.544Z,11.23
2018-04-27T04:00:13.913Z,10.97
2018-04-27T04:02:53.077Z,9.73
2018-04-27T04:05:39.339Z,11.93
2018-04-27T04:08:06.919Z,11.03
2018-04-27T04:10:34.870Z,12.00
2018-04-27T04:13:02.475Z,11.77
2018-04-27T04:15:30.201Z,10.37
2018-04-27T04:17:57.778Z,11.33
2018-04-27T04:20:25.409Z,11.20
2018-04-27T04:22:52.989Z,10.30
2018-04-27T04:25:20.658Z,11.53
2018-04-27T04:27:48.278Z,9.47
2018-04-27T04:30:15.873Z,10.83
2018-04-27T04:32:43.451Z,9.03
2018-04-27T04:35:11.070Z,11.27
2018-04-27T04:37:38.663Z,13.17
2018-04-27T04:40:06.245Z,10.83
2018-04-27T04:42:33.884Z,13.23
2018-04-27T04:45:01.487Z,12.63
2018-04-27T04:47:29.082Z,11.90
2018-04-27T04:49:56.729Z,12.80
2018-04-27T04:52:24.376Z,12.40
2018-04-27T04:54:51.973Z,10.87
2018-04-27T04:57:19.598Z,11.63
2018-04-27T04:59:47.192Z,12.97
2018-04-27T05:02:14.780Z,13.90
2018-04-27T05:04:42.396Z,13.80
2018-04-27T05:07:09.988Z,12.20
2018-04-27T05:09:37.759Z,12.17
2018-04-27T05:12:05.384Z,11.67
2018-04-27T05:14:32.963Z,12.20
2018-04-27T05:17:00.545Z,13.27
2018-04-27T05:19:28.394Z,13.30
2018-04-27T05:21:56.069Z,11.37
2018-04-27T05:24:23.638Z,10.97
2018-04-27T05:26:51.243Z,15.83
2018-04-27T05:29:19.055Z,14.87
2018-04-27T05:31:46.709Z,11.37
2018-04-27T05:34:14.341Z,14.63
2018-04-27T05:36:41.922Z,14.30
2018-04-27T05:39:09.502Z,32.73
2018-04-27T05:41:37.119Z,16.27
2018-04-27T05:44:04.825Z,18.53
2018-04-27T05:46:32.471Z,14.27
2018-04-27T05:49:00.341Z,16.40
2018-04-27T05:51:27.893Z,12.20
2018-04-27T05:53:55.488Z,10.50
2018-04-27T05:56:23.108Z,9.33
2018-04-27T05:58:50.697Z,9.53
2018-04-27T06:01:18.508Z,10.80
2018-04-27T06:03:57.795Z,8.50
2018-04-27T06:06:25.380Z,8.20
2018-04-27T06:08:52.955Z,8.03
2018-04-27T06:11:20.654Z,7.50
2018-04-27T06:13:48.227Z,6.23
2018-04-27T06:16:15.805Z,7.07
2018-04-27T06:18:43.420Z,7.40
2018-04-27T06:21:11.005Z,7.47
2018-04-27T06:23:38.597Z,6.43
2018-04-27T06:26:06.213Z,6.10
2018-04-27T06:28:49.585Z,6.40
2018-04-27T06:31:17.193Z,7.10
2018-04-27T06:33:44.783Z,6.30
2018-04-27T06:36:12.354Z,7.43
2018-04-27T06:38:40.015Z,6.50
2018-04-27T06:41:07.724Z,6.63
2018-04-27T06:43:35.313Z,6.30
2018-04-27T06:46:02.953Z,5.50
2018-04-27T06:48:30.542Z,5.77
2018-04-27T06:50:58.928Z,6.27
2018-04-27T06:53:26.567Z,6.10
2018-04-27T06:55:54.152Z,6.67
2018-04-27T06:58:21.727Z,8.10
2018-04-27T07:00:49.358Z,7.80
2018-04-27T07:03:16.941Z,7.90
2018-04-27T07:05:44.505Z,6.70
2018-04-27T07:08:12.154Z,6.40
2018-04-27T07:10:39.727Z,6.40
2018-04-27T07:13:07.341Z,6.33
2018-04-27T07:15:35.012Z,6.50
2018-04-27T07:18:02.590Z,5.93
2018-04-27T07:20:30.184Z,5.30
2018-04-27T07:22:57.806Z,5.47
2018-04-27T07:25:25.380Z,4.83
2018-04-27T07:27:52.958Z,5.47
2018-04-27T07:30:20.610Z,4.57
2018-04-27T07:32:48.237Z,4.70
2018-04-27T07:35:15.849Z,4.27
2018-04-27T07:37:43.488Z,4.20
2018-04-27T07:40:11.055Z,4.13
2018-04-27T07:42:38.664Z,5.13
2018-04-27T07:45:06.293Z,5.40
2018-04-27T07:47:33.890Z,5.37
2018-04-27T07:50:01.470Z,5.10
2018-04-27T07:52:29.157Z,6.07
2018-04-27T07:54:56.773Z,6.27
2018-04-27T07:57:24.407Z,4.80
2018-04-27T07:59:52.017Z,4.90
2018-04-27T08:02:19.670Z,5.23
2018-04-27T08:04:47.295Z,5.37
2018-04-27T08:07:14.927Z,5.53
2018-04-27T08:09:42.595Z,5.80
2018-04-27T08:12:10.183Z,5.13
2018-04-27T08:14:37.839Z,5.00
2018-04-27T08:17:05.449Z,5.00
2018-04-27T08:19:33.023Z,6.17
2018-04-27T08:22:00.794Z,3.87
2018-04-27T08:24:28.423Z,6.07
2018-04-27T08:26:56.180Z,6.00
2018-04-27T08:29:23.925Z,5.00
2018-04-27T08:31:51.801Z,4.47
2018-04-27T08:34:19.467Z,4.77
2018-04-27T08:36:47.211Z,5.30
2018-04-27T08:39:14.908Z,4.63
2018-04-27T08:41:42.681Z,4.97
2018-04-27T08:44:10.395Z,4.03
2018-04-27T08:46:38.094Z,4.00
2018-04-27T08:49:05.947Z,5.00
2018-04-27T08:51:33.703Z,6.33
2018-04-27T08:54:01.409Z,5.33
2018-04-27T08:56:29.085Z,4.93
2018-04-27T08:58:56.798Z,5.45
2018-04-27T09:01:24.458Z,5.50
2018-04-27T09:03:52.153Z,4.50
2018-04-27T09:06:19.941Z,5.20
2018-04-27T09:08:47.645Z,4.00
2018-04-27T09:11:15.497Z,4.50
2018-04-27T09:13:43.203Z,4.27
2018-04-27T09:16:10.911Z,4.80
2018-04-27T09:18:38.609Z,4.13
2018-04-27T09:21:06.355Z,5.60
2018-04-27T09:23:34.033Z,4.67
2018-04-27T09:26:01.700Z,5.40
2018-04-27T09:28:29.440Z,5.00
2018-04-27T09:30:57.142Z,7.70
2018-04-27T09:33:24.816Z,4.00
2018-04-27T09:35:52.555Z,5.20
2018-04-27T09:38:20.232Z,5.57
2018-04-27T09:40:47.931Z,4.87
2018-04-27T09:43:15.654Z,5.23
2018-04-27T09:45:43.326Z,5.57
2018-04-27T09:48:11.100Z,6.40
2018-04-27T09:50:38.820Z,5.13
2018-04-27T09:53:06.541Z,5.43
2018-04-27T09:55:34.281Z,4.20
2018-04-27T09:58:02.017Z,5.83
2018-04-27T10:00:29.696Z,5.67
2018-04-27T10:02:57.583Z,7.07
2018-04-27T10:05:25.295Z,5.07
2018-04-27T10:07:52.964Z,6.53
2018-04-27T10:10:20.656Z,5.90
2018-04-27T10:12:48.287Z,5.20
2018-04-27T10:15:15.901Z,5.90
2018-04-27T10:17:43.519Z,6.50
2018-04-27T10:20:11.153Z,5.37
2018-04-27T10:22:38.738Z,5.80
2018-04-27T10:25:06.362Z,6.57
2018-04-27T10:27:34.017Z,6.73
2018-04-27T10:30:01.599Z,5.20
2018-04-27T10:32:29.193Z,5.00
2018-04-27T10:34:57.016Z,6.40
2018-04-27T10:37:24.665Z,6.50
2018-04-27T10:39:52.261Z,6.00
2018-04-27T10:42:19.877Z,6.50
2018-04-27T10:44:47.511Z,7.30
2018-04-27T10:47:15.155Z,5.83
2018-04-27T10:49:42.824Z,6.70
2018-04-27T10:52:10.406Z,5.60
2018-04-27T10:54:37.988Z,5.17
2018-04-27T10:57:05.609Z,6.53
2018-04-27T10:59:33.249Z,5.10
2018-04-27T11:02:00.842Z,5.37
2018-04-27T11:04:28.459Z,5.83
2018-04-27T11:06:56.090Z,6.20
2018-04-27T11:09:23.738Z,6.10
2018-04-27T11:11:51.361Z,5.00
2018-04-27T11:14:18.950Z,5.87
2018-04-27T11:16:46.598Z,5.73
2018-04-27T11:19:14.196Z,4.93
2018-04-27T11:21:41.783Z,6.03
2018-04-27T11:24:09.435Z,5.30
2018-04-27T11:26:37.054Z,5.83
2018-04-27T11:29:04.636Z,5.33
2018-04-27T11:31:32.224Z,5.87
2018-04-27T11:33:59.883Z,5.13
2018-04-27T11:36:27.460Z,5.22
2018-04-27T11:38:55.077Z,6.43
2018-04-27T11:41:22.707Z,4.80
2018-04-27T11:43:50.336Z,6.33
2018-04-27T11:46:17.975Z,6.03
2018-04-27T11:48:45.646Z,5.40
2018-04-27T11:51:13.236Z,6.67
2018-04-27T11:53:40.933Z,6.43
2018-04-27T11:56:08.573Z,6.07
2018-04-27T11:58:36.187Z,6.23
2018-04-27T12:01:03.836Z,4.90
2018-04-27T12:03:31.451Z,4.90
2018-04-27T12:05:59.077Z,4.13
2018-04-27T12:08:26.664Z,6.07
2018-04-27T12:10:54.266Z,5.50
2018-04-27T12:13:21.861Z,5.90
2018-04-27T12:15:49.490Z,5.27
2018-04-27T12:18:17.109Z,6.40
2018-04-27T12:20:44.701Z,6.50
2018-04-27T12:23:12.291Z,4.93
2018-04-27T12:25:39.898Z,5.30
2018-04-27T12:28:07.488Z,4.77
2018-04-27T12:30:35.065Z,4.80
2018-04-27T12:33:02.684Z,5.73
2018-04-27T12:35:30.262Z,4.23
2018-04-27T12:37:57.853Z,5.13
2018-04-27T12:40:25.463Z,6.20
2018-04-27T12:42:53.064Z,5.80
2018-04-27T12:45:20.657Z,5.10
2018-04-27T12:47:48.270Z,5.50
2018-04-27T12:50:15.846Z,6.23
2018-04-27T12:52:43.440Z,5.53
2018-04-27T12:55:11.092Z,5.13
2018-04-27T12:57:38.698Z,4.50
2018-04-27T13:00:06.298Z,6.10
2018-04-27T13:02:33.943Z,5.17
2018-04-27T13:05:01.558Z,5.93
2018-04-27T13:07:29.142Z,5.87
2018-04-27T13:09:56.748Z,7.40
2018-04-27T13:12:24.395Z,6.80
2018-04-27T13:14:51.973Z,8.20
2018-04-27T13:17:19.599Z,6.23
2018-04-27T13:19:47.189Z,6.90
2018-04-27T13:22:14.808Z,6.87
2018-04-27T13:24:42.432Z,7.83
2018-04-27T13:27:10.008Z,7.70
2018-04-27T13:29:37.597Z,7.90
2018-04-27T13:32:05.228Z,8.27
2018-04-27T13:34:32.825Z,8.70
2018-04-27T13:37:00.399Z,6.70
2018-04-27T13:39:28.029Z,7.43
2018-04-27T13:41:55.638Z,6.90
2018-04-27T13:44:23.215Z,7.07
2018-04-27T13:46:50.890Z,8.50
2018-04-27T13:49:18.471Z,6.80
2018-04-27T13:51:46.096Z,7.20
2018-04-27T13:54:13.708Z,6.50
2018-04-27T13:56:41.295Z,6.33
2018-04-27T13:59:08.872Z,7.30
2018-04-27T14:01:36.489Z,7.43
2018-04-27T14:04:04.071Z,7.03
2018-04-27T14:06:31.668Z,8.03
2018-04-27T14:08:59.342Z,7.63
2018-04-27T14:11:26.994Z,7.50
2018-04-27T14:13:54.583Z,6.80
2018-04-27T14:16:22.302Z,7.83
2018-04-27T14:18:49.866Z,6.27
2018-04-27T14:21:17.461Z,7.03
2018-04-27T14:23:45.083Z,7.40
2018-04-27T14:26:12.649Z,7.40
2018-04-27T14:28:40.208Z,8.80
2018-04-27T14:31:07.819Z,7.10
2018-04-27T14:33:35.461Z,10.43
2018-04-27T14:36:03.060Z,8.43
2018-04-27T14:38:30.669Z,10.80
2018-04-27T14:40:58.246Z,8.87
2018-04-27T14:43:25.854Z,8.93
2018-04-27T14:45:53.460Z,9.93
2018-04-27T14:48:21.040Z,9.40
2018-04-27T14:50:48.617Z,9.30
2018-04-27T14:53:16.249Z,13.00
2018-04-27T14:55:43.836Z,10.40
2018-04-27T14:58:11.463Z,9.37
2018-04-27T15:00:39.102Z,9.53
2018-04-27T15:03:06.726Z,9.30
2018-04-27T15:05:34.305Z,8.63
2018-04-27T15:08:01.915Z,10.17
2018-04-27T15:10:29.488Z,9.57
2018-04-27T15:12:57.093Z,12.57
2018-04-27T15:15:24.696Z,9.80
2018-04-27T15:17:52.288Z,9.07
2018-04-27T15:20:19.870Z,9.47
2018-04-27T15:22:47.487Z,10.23
2018-04-27T15:25:15.076Z,9.97
2018-04-27T15:27:42.656Z,8.70
2018-04-27T15:30:10.261Z,9.93
2018-04-27T15:32:37.845Z,8.47
2018-04-27T15:35:05.415Z,9.70
2018-04-27T15:37:33.053Z,9.80
2018-04-27T15:40:00.658Z,8.30
2018-04-27T15:42:28.248Z,8.07
2018-04-27T15:44:55.855Z,10.07
2018-04-27T15:47:24.349Z,8.37
2018-04-27T15:49:52.024Z,9.80
2018-04-27T15:52:19.665Z,8.20
2018-04-27T15:54:47.240Z,9.10
2018-04-27T15:57:14.819Z,9.33
2018-04-27T15:59:42.436Z,8.90
2018-04-27T16:02:10.167Z,9.00
2018-04-27T16:04:37.738Z,9.20
2018-04-27T16:07:05.339Z,9.67
2018-04-27T16:09:32.958Z,10.37
2018-04-27T16:12:00.543Z,9.50
2018-04-27T16:14:28.160Z,9.43
2018-04-27T16:16:55.808Z,8.63
2018-04-27T16:19:23.414Z,9.30
2018-04-27T16:21:51.020Z,9.23
2018-04-27T16:24:18.625Z,8.93
2018-04-27T16:26:46.189Z,9.20
2018-04-27T16:29:13.787Z,11.80
2018-04-27T16:31:42.277Z,11.20
2018-04-27T16:34:09.851Z,11.80
2018-04-27T16:36:37.468Z,12.57
2018-04-27T16:39:05.105Z,10.00
2018-04-27T16:41:32.679Z,10.33
2018-04-27T16:44:00.304Z,13.53
2018-04-27T16:46:27.918Z,11.60
2018-04-27T16:48:55.557Z,10.70
2018-04-27T16:51:23.181Z,10.20
2018-04-27T16:53:50.763Z,12.80
2018-04-27T16:56:18.350Z,9.63
2018-04-27T16:58:45.980Z,18.63
2018-04-27T17:01:13.594Z,11.53
2018-04-27T17:03:41.236Z,10.57
2018-04-27T17:06:08.868Z,9.80
2018-04-27T17:08:36.445Z,9.10
2018-04-27T17:11:04.024Z,10.00
2018-04-27T17:13:31.699Z,11.37
2018-04-27T17:15:59.263Z,12.13
2018-04-27T17:18:26.885Z,11.40
2018-04-27T17:20:54.511Z,12.30
2018-04-27T17:23:22.113Z,14.03
2018-04-27T17:25:49.682Z,12.60
2018-04-27T17:28:17.290Z,14.70
2018-04-27T17:30:44.910Z,14.93
2018-04-27T17:33:13.246Z,12.70
2018-04-27T17:35:40.915Z,11.13
2018-04-27T17:38:08.583Z,13.30
2018-04-27T17:40:36.172Z,13.60
2018-04-27T17:43:03.784Z,13.07
2018-04-27T17:45:31.362Z,15.90
2018-04-27T17:47:58.937Z,13.60
2018-04-27T17:50:26.554Z,16.60
2018-04-27T17:52:54.150Z,14.47
2018-04-27T17:55:21.750Z,15.03
2018-04-27T17:57:49.374Z,13.60
2018-04-27T18:00:17.088Z,14.93
2018-04-27T18:02:44.662Z,15.03
2018-04-27T18:05:12.272Z,15.33
2018-04-27T18:07:39.852Z,15.77
2018-04-27T18:10:07.424Z,16.40
2018-04-27T18:12:35.042Z,13.70
2018-04-27T18:15:02.623Z,15.83
2018-04-27T18:17:30.297Z,12.13
2018-04-27T18:19:57.921Z,14.77
2018-04-27T18:22:25.508Z,15.63
2018-04-27T18:24:53.095Z,13.60
2018-04-27T18:27:20.720Z,12.63
2018-04-27T18:29:48.340Z,13.73
2018-04-27T18:32:15.933Z,13.43
2018-04-27T18:34:43.541Z,14.13
2018-04-27T18:37:11.127Z,15.60
2018-04-27T18:39:38.741Z,14.27
2018-04-27T18:42:06.369Z,15.30
2018-04-27T18:44:33.970Z,13.43
2018-04-27T18:47:01.540Z,17.67
2018-04-27T18:49:29.162Z,15.70
2018-04-27T18:51:56.757Z,16.67
2018-04-27T18:54:24.339Z,17.00
2018-04-27T18:56:52.085Z,16.90
2018-04-27T18:59:19.670Z,18.17
2018-04-27T19:01:47.289Z,18.97
2018-04-27T19:04:15.782Z,18.70
2018-04-27T19:06:43.400Z,18.87
2018-04-27T19:09:11.006Z,20.10
2018-04-27T19:11:41.208Z,19.40
2018-04-27T19:14:08.884Z,18.73
2018-04-27T19:16:36.531Z,17.97
2018-04-27T19:19:04.149Z,19.80
2018-04-27T19:21:31.802Z,21.57
2018-04-27T19:23:59.384Z,19.27
2018-04-27T19:26:27.154Z,20.33
2018-04-27T19:28:54.798Z,20.63
2018-04-27T19:31:22.381Z,19.07
2018-04-27T19:33:52.711Z,20.03
2018-04-27T19:36:20.285Z,19.87
2018-04-27T19:38:47.934Z,20.30
2018-04-27T19:41:15.569Z,20.00
2018-04-27T19:43:43.168Z,19.27
2018-04-27T19:46:10.793Z,19.30
2018-04-27T19:48:38.410Z,20.70
2018-04-27T19:51:06.028Z,20.20
2018-04-27T19:53:33.662Z,18.97
2018-04-27T19:56:01.300Z,19.73
2018-04-27T19:58:28.893Z,20.47
2018-04-27T20:00:56.556Z,22.80
2018-04-27T20:03:24.165Z,20.17
2018-04-27T20:05:51.848Z,20.57
2018-04-27T20:08:22.418Z,21.70
2018-04-27T20:10:50.313Z,18.20
2018-04-27T20:13:18.501Z,21.60
2018-04-27T20:15:49.710Z,20.60
2018-04-27T20:18:26.268Z,18.97
2018-04-27T20:20:53.942Z,18.87
2018-04-27T20:23:22.366Z,18.97
2018-04-27T20:25:50.920Z,19.40
2018-04-27T20:28:18.585Z,20.60
2018-04-27T20:30:46.219Z,20.93
2018-04-27T20:33:14.615Z,19.50
2018-04-27T20:35:42.317Z,19.57
2018-04-27T20:38:20.710Z,20.63
2018-04-27T20:40:48.476Z,22.77
2018-04-27T20:43:16.963Z,19.67
2018-04-27T20:45:44.674Z,21.37
2018-04-27T20:48:12.559Z,22.80
2018-04-27T20:50:40.230Z,21.37
2018-04-27T20:53:07.899Z,20.40
2018-04-27T20:55:36.216Z,19.30
2018-04-27T20:58:03.810Z,20.60
2018-04-27T21:00:31.489Z,20.00
2018-04-27T21:02:59.182Z,18.03
2018-04-27T21:05:27.615Z,18.93
2018-04-27T21:07:55.213Z,22.20
2018-04-27T21:10:22.903Z,20.87
2018-04-27T21:12:51.490Z,19.93
2018-04-27T21:15:19.097Z,20.50
2018-04-27T21:17:49.531Z,22.67
2018-04-27T21:20:17.937Z,22.77
2018-04-27T21:22:45.566Z,24.70
2018-04-27T21:25:13.279Z,28.87
2018-04-27T21:27:43.348Z,28.93
2018-04-27T21:30:11.005Z,27.63
2018-04-27T21:32:38.659Z,20.80
2018-04-27T21:35:06.320Z,25.07
2018-04-27T21:37:34.002Z,26.47
2018-04-27T21:40:01.868Z,24.00
2018-04-27T21:42:29.501Z,23.13
2018-04-27T21:44:57.189Z,21.13
2018-04-27T21:47:37.962Z,22.23
2018-04-27T21:50:06.475Z,25.20
2018-04-27T21:52:36.944Z,21.10
2018-04-27T21:55:05.332Z,26.60
2018-04-27T22:00:40.143Z,23.30
2018-04-27T22:03:14.560Z,23.40
2018-04-27T22:05:49.867Z,24.60
2018-04-27T22:08:23.152Z,24.93
2018-04-27T22:10:50.801Z,24.77
2018-04-27T22:13:19.436Z,25.23
2018-04-27T22:15:47.114Z,22.10
2018-04-27T22:18:14.741Z,22.50
2018-04-27T22:20:45.088Z,23.83
2018-04-27T22:23:12.811Z,24.23
2018-04-27T22:25:42.244Z,23.13
2018-04-27T22:28:09.896Z,21.97
2018-04-27T22:30:38.592Z,21.90
2018-04-27T22:36:45.596Z,23.80
2018-04-27T22:39:26.788Z,20.90
2018-04-27T22:42:10.200Z,20.90
2018-04-27T22:44:45.525Z,21.93
2018-04-27T22:47:17.963Z,22.73
2018-04-27T22:49:45.598Z,21.90
2018-04-27T22:52:13.187Z,21.40
2018-04-27T22:54:47.638Z,21.97
2018-04-27T22:57:31.619Z,20.90
2018-04-27T22:59:59.290Z,21.60
2018-04-27T23:02:27.835Z,22.57
2018-04-27T23:04:58.173Z,22.43
2018-04-27T23:07:36.539Z,21.87
2018-04-27T23:10:04.251Z,21.20
2018-04-27T23:12:33.507Z,23.73
2018-04-27T23:15:01.156Z,23.30
2018-04-27T23:17:28.860Z,23.27
2018-04-27T23:19:57.323Z,21.17
2018-04-27T23:22:42.064Z,23.83
2018-04-27T23:25:25.466Z,24.00
2018-04-27T23:27:53.105Z,23.83
2018-04-27T23:30:21.563Z,21.93
2018-04-27T23:32:49.286Z,21.83
2018-04-27T23:35:17.003Z,20.40
2018-04-27T23:37:44.602Z,22.70
2018-04-27T23:40:12.256Z,21.60
2018-04-27T23:42:39.972Z,21.87
2018-04-27T23:45:08.427Z,22.47
2018-04-27T23:47:36.029Z,20.47
2018-04-27T23:50:03.648Z,23.70
2018-04-27T23:52:31.233Z,20.07
2018-04-27T23:54:58.834Z,20.93
2018-04-27T23:57:26.516Z,21.63
2018-04-27T23:59:54.158Z,20.63
